Terminal Aerodrome Forecast
Issued by NWS

Home | Current Version | Previous Version | Text Only | Print | Product List | Glossary On
Versions: 1 2 3 4 5 6 7 8 9 10 11 12
000
FTUS46 KSGX 192325
TAFTRM
TAF
KTRM 192325Z 2000/2024 15011KT P6SM FEW250
     FM200300 34011KT P6SM FEW250
     FM200700 VRB05KT P6SM SKC
     FM202000 14009KT P6SM FEW250=

USA.gov is the U.S. government's official web portal to all federal, state and local government web resources and services.